Terminal Aerodrome Forecast
Issued by NWS

Current Version | Previous Version | Graphics & Text | Print | Product List | Glossary On
Versions: 1 2 3 4 5 6 7 8 9 10 11 12 13 14 15 16
452
FTUS41 KPBZ 232320
TAFMGW
TAF
KMGW 232320Z 2400/2424 11008KT P6SM BKN250
     FM241500 10010KT P6SM OVC100
     FM241800 08010G16KT P6SM OVC025=

USA.gov is the U.S. government's official web portal to all federal, state and local government web resources and services.